createdAt,value
2022-07-25T00:02:27.826Z,61.70
2022-07-25T00:07:26.602Z,61.40
2022-07-25T00:12:25.776Z,61.20
2022-07-25T00:17:24.781Z,60.90
2022-07-25T00:22:23.870Z,60.60
2022-07-25T00:27:22.905Z,60.30
2022-07-25T00:32:21.814Z,60.10
2022-07-25T00:37:20.827Z,59.80
2022-07-25T00:42:21.389Z,59.70
2022-07-25T00:47:20.574Z,59.40
2022-07-25T00:52:19.867Z,59.20
2022-07-25T00:57:18.720Z,59.10
2022-07-25T01:02:17.781Z,59.00
2022-07-25T01:07:16.715Z,58.70
2022-07-25T01:12:15.776Z,58.60
2022-07-25T01:17:14.753Z,58.50
2022-07-25T01:22:13.712Z,58.50
2022-07-25T01:27:17.359Z,58.50
2022-07-25T01:32:13.689Z,58.40
2022-07-25T01:37:12.748Z,58.30
2022-07-25T01:42:11.855Z,58.30
2022-07-25T01:47:10.871Z,58.30
2022-07-25T01:52:09.675Z,58.20
2022-07-25T01:57:08.676Z,58.40
2022-07-25T02:02:07.692Z,58.30
2022-07-25T02:07:06.707Z,58.40
2022-07-25T02:12:06.887Z,58.40
2022-07-25T02:17:05.921Z,58.40
2022-07-25T02:22:04.767Z,58.50
2022-07-25T02:27:03.777Z,58.40
2022-07-25T02:32:03.086Z,58.50
2022-07-25T02:37:01.717Z,58.50
2022-07-25T02:42:01.109Z,58.60
2022-07-25T02:46:59.815Z,58.60
2022-07-25T02:51:58.827Z,58.60
2022-07-25T02:56:57.744Z,58.60
2022-07-25T03:01:56.751Z,58.70
2022-07-25T03:06:55.965Z,58.70
2022-07-25T03:11:54.883Z,58.80
2022-07-25T03:16:53.932Z,58.90
2022-07-25T03:21:52.886Z,58.90
2022-07-25T03:26:51.901Z,59.10
2022-07-25T03:31:51.063Z,59.10
2022-07-25T03:36:49.924Z,59.20
2022-07-25T03:41:48.935Z,59.20
2022-07-25T03:46:47.952Z,59.20
2022-07-25T03:51:46.747Z,59.30
2022-07-25T03:56:45.771Z,59.40
2022-07-25T04:01:44.761Z,59.40
2022-07-25T04:06:44.390Z,59.40
2022-07-25T04:11:43.932Z,59.30
2022-07-25T04:16:42.910Z,59.30
2022-07-25T04:21:42.877Z,59.20
2022-07-25T04:26:41.891Z,59.30
2022-07-25T04:31:41.056Z,59.30
2022-07-25T04:36:39.998Z,59.30
2022-07-25T04:41:38.927Z,58.90
2022-07-25T04:46:37.912Z,58.80
2022-07-25T04:51:36.895Z,58.60
2022-07-25T04:56:35.963Z,58.60
2022-07-25T05:01:35.089Z,58.40
2022-07-25T05:06:34.076Z,58.40
2022-07-25T05:11:33.003Z,58.20
2022-07-25T05:16:32.059Z,58.20
2022-07-25T05:21:31.009Z,57.90
2022-07-25T05:26:30.872Z,57.60
2022-07-25T05:31:29.979Z,57.50
2022-07-25T05:36:28.861Z,57.30
2022-07-25T05:41:27.935Z,57.10
2022-07-25T05:46:26.877Z,56.90
2022-07-25T05:51:27.720Z,56.80
2022-07-25T05:56:25.950Z,56.70
2022-07-25T06:01:25.115Z,55.50
2022-07-25T06:06:22.928Z,55.90
2022-07-25T06:11:22.064Z,56.40
2022-07-25T06:16:22.039Z,56.30
2022-07-25T06:21:20.795Z,55.90
2022-07-25T06:26:20.899Z,55.80
2022-07-25T06:31:19.904Z,55.30
2022-07-25T06:36:19.076Z,55.70
2022-07-25T06:41:17.027Z,55.30
2022-07-25T06:46:16.105Z,55.40
2022-07-25T06:51:14.798Z,54.70
2022-07-25T06:56:17.595Z,54.40
2022-07-25T07:01:15.089Z,54.40
2022-07-25T07:06:14.049Z,54.60
2022-07-25T07:11:14.823Z,54.20
2022-07-25T07:16:14.168Z,54.00
2022-07-25T07:21:21.065Z,53.80
2022-07-25T07:26:13.901Z,53.50
2022-07-25T07:31:17.483Z,52.50
2022-07-25T07:36:14.004Z,52.40
2022-07-25T07:41:12.867Z,52.70
2022-07-25T07:46:12.129Z,52.50
2022-07-25T07:51:10.913Z,52.70
2022-07-25T07:56:09.974Z,51.80
2022-07-25T08:01:08.920Z,51.70
2022-07-25T08:06:08.014Z,51.30
2022-07-25T08:11:06.830Z,50.90
2022-07-25T08:16:06.403Z,50.50
2022-07-25T08:21:05.709Z,49.90
2022-07-25T08:26:05.376Z,48.80
2022-07-25T08:31:04.173Z,49.00
2022-07-25T08:36:02.992Z,49.00
2022-07-25T08:41:02.821Z,48.40
2022-07-25T08:46:02.296Z,48.20
2022-07-25T08:51:01.244Z,47.30
2022-07-25T08:56:00.171Z,47.60
2022-07-25T09:00:58.906Z,47.40
2022-07-25T09:05:57.985Z,46.80
2022-07-25T09:10:57.002Z,46.80
2022-07-25T09:15:58.389Z,48.20
2022-07-25T09:20:58.258Z,48.40
2022-07-25T09:25:56.890Z,48.40
2022-07-25T09:30:56.247Z,47.00
2022-07-25T09:35:54.935Z,46.90
2022-07-25T09:40:54.045Z,46.90
2022-07-25T09:45:52.981Z,46.60
2022-07-25T09:50:52.064Z,46.50
2022-07-25T09:55:52.921Z,47.00
2022-07-25T10:00:52.213Z,46.30
2022-07-25T10:05:50.481Z,46.10
2022-07-25T10:10:49.034Z,46.70
2022-07-25T10:15:48.335Z,47.60
2022-07-25T10:20:47.051Z,49.10
2022-07-25T10:25:49.119Z,49.90
2022-07-25T10:30:48.015Z,50.10
2022-07-25T10:35:46.944Z,50.30
2022-07-25T10:40:47.117Z,52.80
2022-07-25T10:45:45.201Z,52.40
2022-07-25T10:50:55.507Z,53.20
2022-07-25T10:55:59.826Z,52.30
2022-07-25T11:00:48.126Z,52.10
2022-07-25T11:05:47.251Z,51.90
2022-07-25T11:10:46.152Z,49.90
2022-07-25T11:15:45.160Z,49.70
2022-07-25T11:20:44.192Z,48.60
2022-07-25T11:25:43.260Z,49.20
2022-07-25T11:30:41.064Z,49.90
2022-07-25T11:35:39.985Z,48.80
2022-07-25T11:40:39.140Z,48.00
2022-07-25T11:45:41.613Z,46.50
2022-07-25T11:50:40.310Z,45.50
2022-07-25T11:55:40.459Z,45.20
2022-07-25T12:00:39.046Z,44.80
2022-07-25T12:05:38.007Z,44.20
2022-07-25T12:10:37.063Z,43.90
2022-07-25T12:15:36.066Z,44.00
2022-07-25T12:20:35.088Z,43.90
2022-07-25T12:25:34.099Z,44.10
2022-07-25T12:30:33.797Z,44.00
2022-07-25T12:35:33.129Z,43.30
2022-07-25T12:40:32.259Z,44.00
2022-07-25T12:45:31.112Z,43.80
2022-07-25T12:50:30.262Z,44.10
2022-07-25T12:55:29.082Z,43.80
2022-07-25T13:00:28.563Z,44.50
2022-07-25T13:05:27.233Z,45.10
2022-07-25T13:10:26.178Z,46.00
2022-07-25T13:15:27.037Z,46.20
2022-07-25T13:20:26.284Z,46.20
2022-07-25T13:25:25.117Z,46.30
2022-07-25T13:30:24.103Z,45.40
2022-07-25T13:35:31.552Z,45.30
2022-07-25T13:40:25.127Z,44.70
2022-07-25T13:45:24.139Z,44.30
2022-07-25T13:50:23.327Z,45.30
2022-07-25T13:55:22.129Z,45.50
2022-07-25T14:00:21.115Z,45.10
2022-07-25T14:05:19.234Z,45.40
2022-07-25T14:10:18.188Z,44.30
2022-07-25T14:15:17.619Z,44.20
2022-07-25T14:20:16.166Z,44.50
2022-07-25T14:25:15.183Z,44.90
2022-07-25T14:30:14.194Z,44.60
2022-07-25T14:35:13.195Z,44.60
2022-07-25T14:40:13.115Z,44.20
2022-07-25T14:45:12.264Z,44.40
2022-07-25T14:50:11.383Z,44.30
2022-07-25T14:55:10.155Z,45.80
2022-07-25T15:00:09.338Z,46.90
2022-07-25T15:05:08.236Z,47.10
2022-07-25T15:10:08.008Z,47.70
2022-07-25T15:15:07.223Z,48.10
2022-07-25T15:20:05.350Z,48.80
2022-07-25T15:30:06.415Z,50.70
2022-07-25T15:35:05.243Z,51.00
2022-07-25T15:40:03.837Z,51.80
2022-07-25T15:45:31.520Z,52.60
2022-07-25T15:50:04.308Z,53.40
2022-07-25T15:55:03.211Z,53.80
2022-07-25T16:00:02.261Z,53.70
2022-07-25T16:05:01.282Z,53.90
2022-07-25T16:10:00.336Z,52.80
2022-07-25T16:14:59.273Z,51.80
2022-07-25T16:19:58.286Z,48.80
2022-07-25T16:24:59.270Z,48.20
2022-07-25T16:29:58.250Z,47.10
2022-07-25T16:34:57.621Z,46.70
2022-07-25T16:39:56.280Z,43.50
2022-07-25T16:44:55.257Z,40.40
2022-07-25T16:49:54.290Z,39.90
2022-07-25T16:54:53.494Z,38.80
2022-07-25T16:59:52.880Z,37.50
2022-07-25T17:04:50.575Z,40.20
2022-07-25T17:09:49.306Z,43.10
2022-07-25T17:14:48.333Z,44.40
2022-07-25T17:19:47.241Z,45.70
2022-07-25T17:24:46.353Z,45.50
2022-07-25T17:29:45.357Z,45.80
2022-07-25T17:34:44.661Z,46.70
2022-07-25T17:39:43.366Z,47.10
2022-07-25T17:44:42.388Z,46.90
2022-07-25T17:49:41.433Z,47.40
2022-07-25T17:54:39.852Z,47.30
2022-07-25T17:59:38.264Z,47.40
2022-07-25T18:04:37.360Z,47.60
2022-07-25T18:09:36.514Z,48.10
2022-07-25T18:14:35.431Z,48.40
2022-07-25T18:19:34.364Z,49.00
2022-07-25T18:24:33.537Z,48.90
2022-07-25T18:29:34.360Z,47.30
2022-07-25T18:34:34.404Z,46.80
2022-07-25T18:39:33.365Z,47.50
2022-07-25T18:44:32.564Z,48.40
2022-07-25T18:49:31.611Z,48.90
2022-07-25T18:54:30.598Z,49.50
2022-07-25T18:59:29.592Z,49.60
2022-07-25T19:04:28.495Z,49.70
2022-07-25T19:09:27.436Z,48.80
2022-07-25T19:14:26.904Z,48.90
2022-07-25T19:19:25.528Z,49.00
2022-07-25T19:24:24.465Z,49.20
2022-07-25T19:29:23.576Z,49.30
2022-07-25T19:34:23.392Z,49.70
2022-07-25T19:39:24.034Z,50.10
2022-07-25T19:44:23.569Z,50.20
2022-07-25T19:49:22.577Z,50.30
2022-07-25T19:54:21.712Z,50.50
2022-07-25T19:59:20.423Z,50.60
2022-07-25T20:04:19.616Z,50.80
2022-07-25T20:09:18.642Z,51.00
2022-07-25T20:14:17.633Z,51.10
2022-07-25T20:19:16.484Z,51.20
2022-07-25T20:24:20.924Z,51.30
2022-07-25T20:29:16.423Z,51.20
2022-07-25T20:34:15.521Z,51.40
2022-07-25T20:39:14.601Z,51.60
2022-07-25T20:44:13.562Z,51.80
2022-07-25T20:49:13.894Z,52.00
2022-07-25T20:54:14.025Z,52.00
2022-07-25T20:59:12.543Z,52.30
2022-07-25T21:04:10.724Z,52.20
2022-07-25T21:09:09.871Z,52.30
2022-07-25T21:14:09.884Z,52.30
2022-07-25T21:19:10.064Z,52.60
2022-07-25T21:24:11.464Z,52.80
2022-07-25T21:29:11.118Z,52.90
2022-07-25T21:34:09.601Z,53.00
2022-07-25T21:39:09.004Z,53.00
2022-07-25T21:44:08.743Z,53.20
2022-07-25T21:49:40.974Z,53.30
2022-07-25T21:54:26.740Z,53.90
2022-07-25T21:59:25.433Z,54.30
2022-07-25T22:04:24.538Z,54.60
2022-07-25T22:09:23.560Z,55.10
2022-07-25T22:14:22.472Z,55.50
2022-07-25T22:19:22.633Z,55.90
2022-07-25T22:24:21.577Z,56.40
2022-07-25T22:29:20.531Z,56.60
2022-07-25T22:34:19.631Z,56.60
2022-07-25T22:39:18.644Z,57.00
2022-07-25T22:44:17.438Z,57.00
2022-07-25T22:49:16.628Z,57.00
2022-07-25T22:54:15.431Z,57.40
2022-07-25T22:59:15.792Z,57.60
2022-07-25T23:04:14.736Z,57.80
2022-07-25T23:09:13.747Z,57.70
2022-07-25T23:14:12.584Z,58.10
2022-07-25T23:19:11.751Z,58.40
2022-07-25T23:24:10.563Z,58.40
2022-07-25T23:29:09.787Z,58.60
2022-07-25T23:34:08.983Z,58.50
2022-07-25T23:39:07.945Z,58.40
2022-07-25T23:44:08.657Z,58.60
2022-07-25T23:49:10.484Z,58.70
2022-07-25T23:54:09.752Z,58.50
2022-07-25T23:59:09.161Z,58.70
